Time;durP1;ratioP1;P1;durP2;ratioP2;P2;SDS_P1;SDS_P2;PMS_P1;PMS_P2;Temp;Humidity;BMP_temperature;BMP_pressure;BME280_temperature;BME280_humidity;BME280_pressure;Samples;Min_cycle;Max_cycle;Signal;HPM_P1;HPM_P2
2021/08/28 00:00:51;;;;;;;10.27;5.40;;;;;;;16.09;89.41;96204.84;4979133;28;20215;-70
2021/08/28 00:03:19;;;;;;;10.85;5.75;;;;;;;16.13;89.82;96206.88;4979212;28;21158;-71
2021/08/28 00:05:46;;;;;;;8.20;4.22;;;;;;;15.91;89.87;96197.56;4978906;28;20287;-71
2021/08/28 00:08:12;;;;;;;10.68;5.20;;;;;;;15.84;90.79;96195.16;4978815;28;20207;-71
2021/08/28 00:10:39;;;;;;;8.43;4.72;;;;;;;15.73;91.32;96207.22;4979341;28;20243;-71
2021/08/28 00:13:06;;;;;;;8.65;4.60;;;;;;;15.86;90.76;96191.25;4979339;28;21032;-71
2021/08/28 00:15:33;;;;;;;7.75;4.63;;;;;;;15.87;90.36;96198.19;4978705;28;20235;-71
2021/08/28 00:18:00;;;;;;;7.32;4.15;;;;;;;15.93;90.09;96195.50;4979245;28;20199;-71
2021/08/28 00:20:28;;;;;;;6.78;4.75;;;;;;;16.29;88.79;96193.09;4978522;28;20199;-72
2021/08/28 00:22:55;;;;;;;6.82;4.43;;;;;;;16.28;89.43;96191.50;4979328;28;20207;-71
2021/08/28 00:25:21;;;;;;;9.63;4.45;;;;;;;16.38;90.60;96189.19;4977931;28;20227;-72
2021/08/28 00:27:48;;;;;;;8.10;4.45;;;;;;;16.29;90.98;96181.66;4975565;28;20212;-71
2021/08/28 00:30:15;;;;;;;6.35;3.78;;;;;;;16.17;89.33;96186.81;4978163;28;20561;-71
2021/08/28 00:32:41;;;;;;;19.73;4.10;;;;;;;16.17;89.05;96186.81;4979283;28;20629;-71
2021/08/28 00:35:09;;;;;;;7.47;3.75;;;;;;;16.21;88.95;96187.19;4978592;28;20220;-70
2021/08/28 00:37:37;;;;;;;5.85;3.83;;;;;;;16.51;89.74;96191.78;4978252;28;20683;-72
2021/08/28 00:40:04;;;;;;;8.68;4.32;;;;;;;16.38;89.73;96189.19;4978258;28;20218;-71
2021/08/28 00:42:31;;;;;;;7.50;3.60;;;;;;;15.89;90.39;96183.66;4979110;28;20208;-72
2021/08/28 00:44:57;;;;;;;6.38;4.07;;;;;;;15.86;90.45;96189.41;4978998;28;21029;-70
2021/08/28 00:47:26;;;;;;;6.55;4.13;;;;;;;15.98;90.95;96187.69;4978374;28;20214;-71
2021/08/28 00:49:53;;;;;;;7.07;4.80;;;;;;;15.83;90.87;96193.50;4978076;28;20203;-71
2021/08/28 00:52:20;;;;;;;6.93;4.13;;;;;;;16.02;90.88;96186.25;4977003;28;20282;-72
2021/08/28 00:54:48;;;;;;;8.05;4.60;;;;;;;16.24;90.18;96197.41;4977906;28;20222;-71
2021/08/28 00:57:17;;;;;;;8.88;4.28;;;;;;;16.24;90.88;96198.25;4976557;28;20214;-71
2021/08/28 00:59:43;;;;;;;7.65;4.85;;;;;;;16.01;90.35;96197.09;4976711;28;20210;-71
2021/08/28 01:02:11;;;;;;;7.88;5.10;;;;;;;16.31;91.66;96193.72;4976744;28;20195;-71
2021/08/28 01:04:47;;;;;;;8.50;5.32;;;;;;;16.38;90.99;96199.00;4977955;28;20204;-72
2021/08/28 01:07:20;;;;;;;8.43;5.07;;;;;;;16.44;90.90;96198.97;4975293;28;20600;-71
2021/08/28 01:09:54;;;;;;;8.27;5.25;;;;;;;16.25;91.08;96199.84;4977043;28;20207;-71
2021/08/28 01:12:24;;;;;;;7.70;4.70;;;;;;;16.08;91.91;96193.41;4976783;28;20223;-72
2021/08/28 01:14:55;;;;;;;9.13;5.25;;;;;;;16.38;91.22;96201.66;4976844;28;20224;-72
2021/08/28 01:17:23;;;;;;;9.88;4.95;;;;;;;16.22;91.63;96194.16;4975418;28;20227;-72
2021/08/28 01:20:05;;;;;;;8.68;5.72;;;;;;;16.63;91.28;96187.38;4976936;28;20204;-72
2021/08/28 01:22:32;;;;;;;11.38;6.35;;;;;;;16.35;93.13;96192.25;4976233;28;20215;-72
2021/08/28 01:25:00;;;;;;;10.65;5.00;;;;;;;16.17;92.76;96186.81;4976265;28;20238;-72
2021/08/28 01:27:30;;;;;;;8.35;5.25;;;;;;;16.14;93.69;96181.09;4973536;28;20210;-71
2021/08/28 01:30:00;;;;;;;7.20;4.72;;;;;;;15.97;93.61;96188.75;4976843;28;20212;-71
2021/08/28 01:32:28;;;;;;;8.20;5.07;;;;;;;16.00;93.83;96180.34;4976445;28;20254;-72
2021/08/28 01:34:56;;;;;;;13.75;6.38;;;;;;;16.04;94.09;96186.88;4976892;28;20238;-71
2021/08/28 01:37:22;;;;;;;13.00;7.07;;;;;;;15.98;94.29;96193.03;4975206;28;20204;-71
2021/08/28 01:39:50;;;;;;;10.23;6.00;;;;;;;16.06;94.29;96190.16;4976669;28;20207;-71
2021/08/28 01:42:17;;;;;;;10.00;5.55;;;;;;;16.10;93.81;96186.03;4976336;28;20202;-72
2021/08/28 01:44:46;;;;;;;12.18;6.45;;;;;;;16.13;94.76;96190.91;4976815;28;20207;-71
2021/08/28 01:47:15;;;;;;;11.07;6.68;;;;;;;16.22;94.25;96189.66;4975376;28;20207;-72
2021/08/28 01:49:43;;;;;;;13.77;7.63;;;;;;;16.27;95.15;96189.84;4975853;28;20234;-73
2021/08/28 01:52:09;;;;;;;11.32;6.72;;;;;;;15.99;94.76;96186.69;4975600;28;20613;-71
2021/08/28 01:54:36;;;;;;;12.63;7.28;;;;;;;16.14;94.99;96181.91;4975951;28;20215;-71
2021/08/28 01:57:03;;;;;;;13.95;7.13;;;;;;;16.08;94.79;96180.09;4975248;28;20207;-72
2021/08/28 01:59:30;;;;;;;13.50;6.93;;;;;;;16.24;94.07;96187.59;4976334;28;20207;-71
2021/08/28 02:01:57;;;;;;;15.50;7.35;;;;;;;16.27;94.96;96189.84;4976433;28;20579;-71
2021/08/28 02:04:24;;;;;;;16.50;6.63;;;;;;;16.35;95.09;96184.28;4975892;28;20214;-70
2021/08/28 02:06:58;;;;;;;11.85;6.82;;;;;;;16.47;94.31;96181.75;4975211;28;20235;-72
2021/08/28 02:09:32;;;;;;;13.90;6.90;;;;;;;16.47;95.33;96181.75;4976024;28;20207;-71
2021/08/28 02:12:01;;;;;;;14.38;7.13;;;;;;;16.39;95.30;96177.50;4976283;28;20227;-71
2021/08/28 02:14:34;;;;;;;12.80;7.28;;;;;;;16.38;96.44;96185.69;4976707;28;20207;-72
2021/08/28 02:17:05;;;;;;;12.75;6.47;;;;;;;16.41;95.43;96180.78;4975510;28;20588;-72
2021/08/28 02:19:36;;;;;;;11.95;6.82;;;;;;;16.38;95.73;96177.72;4974826;28;20214;-71
2021/08/28 02:22:10;;;;;;;16.40;6.95;;;;;;;16.51;94.10;96183.78;4972989;28;20208;-72
2021/08/28 02:24:38;;;;;;;12.88;7.00;;;;;;;16.24;95.03;96182.28;4975874;28;20207;-72
2021/08/28 02:27:10;;;;;;;11.88;6.15;;;;;;;16.03;95.61;96181.78;4972055;28;20211;-71
2021/08/28 02:29:42;;;;;;;12.50;7.00;;;;;;;16.27;95.23;96176.56;4975533;28;20208;-72
2021/08/28 02:32:09;;;;;;;13.82;6.38;;;;;;;16.08;94.75;96173.97;4975743;28;20223;-71
2021/08/28 02:34:39;;;;;;;13.35;6.88;;;;;;;16.37;94.63;96171.59;4974887;28;20203;-71
2021/08/28 02:37:06;;;;;;;14.10;7.10;;;;;;;16.27;94.15;96173.91;4975001;28;20585;-71
2021/08/28 02:39:35;;;;;;;14.65;6.68;;;;;;;16.50;94.23;96171.50;4975295;28;20208;-72
2021/08/28 02:42:02;;;;;;;12.75;6.70;;;;;;;16.21;95.92;96165.94;4975354;28;21015;-70
2021/08/28 02:44:29;;;;;;;10.65;6.93;;;;;;;16.42;94.73;96162.97;4975329;28;20211;-71
2021/08/28 02:46:57;;;;;;;12.52;7.15;;;;;;;16.48;94.74;96173.56;4974971;28;20207;-70
2021/08/28 02:49:25;;;;;;;11.50;7.03;;;;;;;16.42;94.44;96169.13;4975029;28;20203;-70
2021/08/28 02:51:53;;;;;;;11.85;6.60;;;;;;;16.47;93.39;96166.63;4975569;28;20230;-71
2021/08/28 02:54:21;;;;;;;10.40;6.72;;;;;;;16.29;95.51;96161.19;4975159;28;20214;-72
2021/08/28 02:56:51;;;;;;;10.00;6.03;;;;;;;16.28;93.93;96167.56;4974914;28;20223;-72
2021/08/28 02:59:18;;;;;;;11.88;6.13;;;;;;;16.28;95.29;96159.59;4974881;28;20229;-70
2021/08/28 03:01:46;;;;;;;11.60;6.55;;;;;;;16.10;94.70;96163.94;4975141;28;20215;-72
2021/08/28 03:04:16;;;;;;;12.68;6.50;;;;;;;16.00;94.61;96164.41;4975225;28;20203;-70
2021/08/28 03:06:42;;;;;;;10.77;6.65;;;;;;;16.19;93.35;96166.16;4974588;28;20231;-71
2021/08/28 03:09:11;;;;;;;10.57;6.70;;;;;;;16.27;94.06;96162.47;4974985;28;20651;-71
2021/08/28 03:11:37;;;;;;;12.85;7.15;;;;;;;16.11;94.62;96160.25;4975173;28;20231;-72
2021/08/28 03:14:04;;;;;;;12.73;6.90;;;;;;;16.23;95.27;96164.69;4975238;28;20683;-71
2021/08/28 03:16:31;;;;;;;13.07;7.43;;;;;;;16.17;94.40;96165.53;4974297;28;20223;-72
2021/08/28 03:18:59;;;;;;;11.45;6.85;;;;;;;16.36;93.71;96163.84;4975204;28;20230;-71
2021/08/28 03:21:28;;;;;;;12.65;6.72;;;;;;;16.38;94.78;96167.91;4975473;28;20199;-71
2021/08/28 03:23:57;;;;;;;14.77;6.82;;;;;;;16.23;94.23;96154.06;4975983;28;20632;-71
2021/08/28 03:26:26;;;;;;;12.90;6.35;;;;;;;16.37;93.89;96155.63;4973591;28;21210;-71
2021/08/28 03:28:54;;;;;;;12.70;6.28;;;;;;;16.32;93.79;96157.28;4972195;28;20211;-71
2021/08/28 03:31:23;;;;;;;10.07;6.95;;;;;;;16.34;94.07;96161.38;4975298;28;20230;-71
2021/08/28 03:33:52;;;;;;;14.35;6.85;;;;;;;16.22;93.99;96163.06;4974697;28;20234;-72
2021/08/28 03:36:19;;;;;;;13.27;6.57;;;;;;;16.02;95.19;96158.88;4973014;28;20226;-71
2021/08/28 03:38:47;;;;;;;14.70;7.35;;;;;;;15.89;95.58;96157.09;4975154;28;20219;-72
2021/08/28 03:41:15;;;;;;;15.93;7.13;;;;;;;15.91;95.97;96159.53;4974592;28;20200;-71
2021/08/28 03:43:44;;;;;;;13.55;7.72;;;;;;;15.84;96.67;96153.44;4974450;28;20211;-72
2021/08/28 03:46:11;;;;;;;17.48;8.43;;;;;;;15.73;96.21;96156.72;4973055;28;20227;-72
2021/08/28 03:48:38;;;;;;;15.27;8.05;;;;;;;15.67;96.60;96154.09;4974945;28;20294;-71
2021/08/28 03:51:04;;;;;;;14.77;8.25;;;;;;;15.55;97.41;96153.94;4974169;28;20215;-72
2021/08/28 03:53:31;;;;;;;15.20;8.30;;;;;;;15.79;96.49;96158.56;4974551;28;20572;-71
2021/08/28 03:55:58;;;;;;;13.95;8.52;;;;;;;15.90;97.06;96158.72;4973643;28;20231;-72
2021/08/28 03:58:25;;;;;;;14.52;8.10;;;;;;;16.13;95.71;96164.34;4974469;28;20229;-71
2021/08/28 04:00:53;;;;;;;13.10;7.95;;;;;;;16.29;95.50;96163.03;4976395;28;20667;-71
2021/08/28 04:03:20;;;;;;;13.02;7.57;;;;;;;16.01;96.10;96160.72;4977608;28;20856;-71
2021/08/28 04:05:47;;;;;;;15.07;7.45;;;;;;;16.03;96.32;96158.66;4977046;28;20227;-72
2021/08/28 04:08:13;;;;;;;19.00;8.65;;;;;;;16.00;95.53;96164.41;4977534;28;20211;-71
2021/08/28 04:10:40;;;;;;;13.82;8.35;;;;;;;16.18;95.47;96164.50;4978073;28;20211;-72
2021/08/28 04:13:06;;;;;;;15.32;8.40;;;;;;;16.26;95.11;96164.28;4977706;28;20226;-71
2021/08/28 04:15:33;;;;;;;20.52;8.07;;;;;;;16.22;95.01;96165.72;4976648;28;20227;-70
2021/08/28 04:18:01;;;;;;;15.55;7.80;;;;;;;16.37;95.21;96165.44;4977492;28;20218;-71
2021/08/28 04:20:27;;;;;;;14.30;8.20;;;;;;;16.22;95.83;96168.38;4978191;28;20690;-72
2021/08/28 04:22:54;;;;;;;17.30;8.45;;;;;;;16.09;96.68;96165.78;4977075;28;20612;-71
2021/08/28 04:25:20;;;;;;;21.45;8.68;;;;;;;16.10;96.26;96161.28;4976590;28;20227;-72
2021/08/28 04:27:47;;;;;;;15.60;7.85;;;;;;;16.07;95.33;96159.06;4974229;28;20226;-71
2021/08/28 04:30:13;;;;;;;15.40;7.80;;;;;;;16.15;94.96;96162.28;4977593;28;20226;-72
2021/08/28 04:32:40;;;;;;;19.08;8.05;;;;;;;16.10;94.75;96164.78;4977489;28;20231;-72
2021/08/28 04:35:09;;;;;;;14.07;7.45;;;;;;;16.22;95.25;96165.72;4977321;28;20227;-71
2021/08/28 04:37:35;;;;;;;19.90;8.70;;;;;;;15.94;95.59;96162.56;4975801;28;20671;-71
2021/08/28 04:40:02;;;;;;;16.35;8.55;;;;;;;16.02;95.31;96167.66;4977335;28;20211;-71
2021/08/28 04:42:28;;;;;;;17.38;9.32;;;;;;;15.83;96.32;96162.44;4977864;28;20745;-71
2021/08/28 04:44:55;;;;;;;15.77;9.57;;;;;;;15.93;95.94;96171.56;4977320;28;20223;-72
2021/08/28 04:47:22;;;;;;;16.52;9.98;;;;;;;15.86;95.70;96173.47;4976128;28;20214;-71
2021/08/28 04:49:49;;;;;;;19.98;10.50;;;;;;;15.71;96.36;96165.97;4977453;28;20213;-72
2021/08/28 04:52:16;;;;;;;18.45;10.75;;;;;;;16.03;96.02;96174.59;4976375;28;20226;-72
2021/08/28 04:54:43;;;;;;;22.38;11.77;;;;;;;15.70;96.91;96175.75;4976042;28;20706;-72
2021/08/28 04:57:09;;;;;;;21.08;11.48;;;;;;;15.91;96.77;96176.31;4976942;28;20207;-71
2021/08/28 04:59:36;;;;;;;20.30;11.48;;;;;;;15.84;96.64;96180.00;4976989;28;20218;-72
2021/08/28 05:02:04;;;;;;;19.63;11.98;;;;;;;15.63;97.98;96176.81;4976873;28;20203;-72
2021/08/28 05:04:30;;;;;;;19.30;11.90;;;;;;;15.58;97.23;96181.91;4976933;28;20214;-71
2021/08/28 05:06:57;;;;;;;23.55;12.13;;;;;;;15.55;98.06;96177.03;4975898;28;20223;-71
2021/08/28 05:09:26;;;;;;;22.13;12.05;;;;;;;15.86;97.79;96184.09;4976002;28;20207;-70
2021/08/28 05:11:52;;;;;;;22.75;13.05;;;;;;;15.67;98.05;96183.31;4975236;28;20766;-71
2021/08/28 05:14:19;;;;;;;18.75;11.48;;;;;;;15.40;97.49;96187.91;4977200;28;20203;-72
2021/08/28 05:16:45;;;;;;;20.33;12.30;;;;;;;15.66;97.35;96187.03;4975936;28;20238;-72
2021/08/28 05:19:11;;;;;;;17.42;11.18;;;;;;;15.65;96.68;96180.88;4976427;28;20200;-73
2021/08/28 05:21:38;;;;;;;23.63;11.82;;;;;;;15.56;97.24;96184.00;4976509;28;20204;-72
2021/08/28 05:24:05;;;;;;;18.65;11.25;;;;;;;15.51;97.66;96189.91;4976647;28;20222;-70
2021/08/28 05:26:33;;;;;;;19.80;12.25;;;;;;;15.82;97.04;96192.66;4975137;28;20227;-70
2021/08/28 05:28:59;;;;;;;21.55;12.80;;;;;;;15.53;98.14;96195.84;4974119;28;20207;-71
2021/08/28 05:31:26;;;;;;;22.88;13.10;;;;;;;15.78;96.96;96190.66;4976631;28;20586;-72
2021/08/28 05:33:52;;;;;;;19.50;12.85;;;;;;;15.62;97.69;96186.63;4976412;28;20231;-72
2021/08/28 05:36:19;;;;;;;22.48;13.00;;;;;;;15.65;97.46;96188.84;4975051;28;20595;-71
2021/08/28 05:38:45;;;;;;;23.08;13.38;;;;;;;15.84;97.27;96190.63;4976226;28;20215;-72
2021/08/28 05:41:12;;;;;;;18.90;12.45;;;;;;;15.78;96.68;96196.78;4976441;28;20573;-71
2021/08/28 05:43:39;;;;;;;19.50;12.02;;;;;;;15.82;97.41;96197.19;4975954;28;20207;-72
2021/08/28 05:46:06;;;;;;;19.05;11.98;;;;;;;15.54;96.97;96200.13;4975238;28;20226;-70
2021/08/28 05:48:32;;;;;;;20.35;12.65;;;;;;;15.78;97.15;96201.28;4976242;28;20207;-71
2021/08/28 05:50:59;;;;;;;20.48;11.98;;;;;;;15.99;95.86;96199.16;4975178;28;20215;-71
2021/08/28 05:53:25;;;;;;;17.55;11.55;;;;;;;16.06;95.25;96198.13;4976180;28;20232;-72
2021/08/28 05:55:52;;;;;;;20.33;11.65;;;;;;;16.20;94.17;96204.97;4975814;28;20234;-72
2021/08/28 05:58:18;;;;;;;18.25;11.48;;;;;;;16.20;94.70;96207.63;4975471;28;20203;-71
2021/08/28 06:00:46;;;;;;;21.80;11.10;;;;;;;16.38;95.15;96206.97;4975689;28;20586;-71
2021/08/28 06:03:13;;;;;;;16.17;10.32;;;;;;;15.98;96.29;96206.31;4976263;28;20206;-71
2021/08/28 06:05:39;;;;;;;18.48;10.80;;;;;;;16.03;96.02;96209.16;4974993;28;20234;-70
2021/08/28 06:08:06;;;;;;;15.85;9.32;;;;;;;15.84;96.06;96211.91;4976188;28;20603;-71
2021/08/28 06:10:32;;;;;;;16.58;9.85;;;;;;;15.69;97.23;96213.97;4975761;28;20211;-70
2021/08/28 06:12:58;;;;;;;16.05;10.07;;;;;;;15.85;96.86;96203.72;4976014;28;20242;-71
2021/08/28 06:15:25;;;;;;;16.73;9.82;;;;;;;15.82;95.60;96202.50;4974654;28;20230;-71
2021/08/28 06:17:53;;;;;;;15.88;10.30;;;;;;;16.04;96.63;96213.44;4975663;28;20218;-70
2021/08/28 06:20:20;;;;;;;14.88;9.93;;;;;;;16.09;95.78;96212.84;4975115;28;20762;-69
2021/08/28 06:22:46;;;;;;;15.52;10.48;;;;;;;16.08;96.82;96213.84;4975495;28;20223;-71
2021/08/28 06:25:12;;;;;;;18.02;10.18;;;;;;;15.95;97.63;96217.38;4974970;28;20230;-71
2021/08/28 06:27:39;;;;;;;15.50;9.13;;;;;;;16.03;94.90;96206.50;4972937;28;20214;-71
2021/08/28 06:30:06;;;;;;;17.40;9.35;;;;;;;16.13;95.08;96204.22;4975573;28;20211;-71
2021/08/28 06:32:33;;;;;;;14.25;9.48;;;;;;;16.15;94.76;96204.81;4975134;28;20223;-71
2021/08/28 06:35:00;;;;;;;15.98;9.57;;;;;;;16.44;93.96;96211.44;4975569;28;20227;-69
2021/08/28 06:37:27;;;;;;;17.30;10.02;;;;;;;16.32;93.46;96208.66;4974211;28;20222;-71
2021/08/28 06:39:53;;;;;;;15.45;9.55;;;;;;;16.12;93.73;96207.88;4975018;28;20208;-70
2021/08/28 06:42:20;;;;;;;15.45;10.13;;;;;;;16.35;93.12;96204.75;4975503;28;20583;-71
2021/08/28 06:44:46;;;;;;;13.23;8.60;;;;;;;16.30;91.58;96201.91;4975745;28;20211;-70
2021/08/28 06:47:13;;;;;;;14.95;9.20;;;;;;;16.28;92.36;96206.63;4973781;28;20214;-71
2021/08/28 06:49:40;;;;;;;14.13;9.05;;;;;;;16.21;94.17;96209.28;4976228;28;20207;-69
2021/08/28 06:52:08;;;;;;;14.75;9.13;;;;;;;16.33;93.99;96209.47;4974969;28;20214;-70
2021/08/28 06:54:34;;;;;;;18.02;10.02;;;;;;;16.22;94.01;96205.59;4974248;28;20211;-70
2021/08/28 06:57:01;;;;;;;13.25;8.80;;;;;;;16.32;92.16;96208.66;4974001;28;20207;-70
2021/08/28 06:59:28;;;;;;;13.23;8.50;;;;;;;16.36;91.02;96212.50;4975766;28;20218;-71
2021/08/28 07:01:54;;;;;;;15.27;9.27;;;;;;;16.77;92.58;96210.22;4973297;28;20203;-70
2021/08/28 07:04:21;;;;;;;15.05;9.15;;;;;;;16.83;91.93;96204.84;4974905;28;21250;-70
2021/08/28 07:06:47;;;;;;;13.02;8.18;;;;;;;16.63;91.22;96212.13;4974335;28;20227;-71
2021/08/28 07:09:15;;;;;;;12.75;7.72;;;;;;;16.72;90.84;96218.81;4974546;28;20226;-70
2021/08/28 07:11:42;;;;;;;12.50;8.02;;;;;;;16.64;91.59;96211.09;4974697;28;20207;-70
2021/08/28 07:14:08;;;;;;;13.20;7.00;;;;;;;16.50;90.58;96209.56;4975128;28;20236;-71
2021/08/28 07:16:35;;;;;;;10.30;6.60;;;;;;;16.48;89.73;96204.69;4973998;28;20227;-71
2021/08/28 07:19:01;;;;;;;10.95;7.43;;;;;;;16.82;90.10;96208.53;4974780;28;20203;-70
2021/08/28 07:21:27;;;;;;;11.65;6.22;;;;;;;16.82;85.94;96203.22;4975285;28;20790;-70
2021/08/28 07:23:54;;;;;;;9.38;6.03;;;;;;;17.13;88.36;96204.00;4974385;28;20203;-70
2021/08/28 07:26:22;;;;;;;8.68;5.90;;;;;;;17.08;86.97;96199.53;4973895;28;20364;-71
2021/08/28 07:28:48;;;;;;;10.75;5.35;;;;;;;16.80;86.82;96204.44;4971623;28;20235;-71
2021/08/28 07:31:15;;;;;;;7.68;4.78;;;;;;;16.91;84.55;96196.59;4974413;28;20203;-71
2021/08/28 07:33:41;;;;;;;7.88;5.10;;;;;;;16.81;85.94;96200.75;4974503;28;20237;-71
2021/08/28 07:36:08;;;;;;;6.55;4.85;;;;;;;16.62;86.35;96207.03;4977281;28;20238;-71
2021/08/28 07:38:35;;;;;;;7.93;5.10;;;;;;;16.58;86.29;96205.84;4977794;28;20241;-71
2021/08/28 07:41:01;;;;;;;7.18;5.32;;;;;;;16.85;86.34;96200.13;4978307;28;20207;-70
2021/08/28 07:43:30;;;;;;;5.13;4.03;;;;;;;16.61;87.44;96205.38;4977734;28;20215;-69
2021/08/28 07:45:56;;;;;;;5.97;4.18;;;;;;;16.71;84.76;96205.75;4977458;28;20227;-70
2021/08/28 07:48:23;;;;;;;5.22;3.97;;;;;;;16.96;84.51;96203.94;4977836;28;20564;-71
2021/08/28 07:50:49;;;;;;;7.45;4.40;;;;;;;17.16;84.02;96198.22;4978146;28;20211;-71
2021/08/28 07:53:16;;;;;;;5.72;4.22;;;;;;;17.19;83.27;96200.44;4977305;28;20235;-70
2021/08/28 07:55:42;;;;;;;5.78;4.10;;;;;;;17.30;85.41;96202.44;4976615;28;20258;-71
2021/08/28 07:58:09;;;;;;;5.32;4.00;;;;;;;17.15;83.43;96206.44;4977157;28;20706;-71
2021/08/28 08:00:38;;;;;;;5.63;4.15;;;;;;;17.32;84.00;96203.03;4977979;28;20208;-69
2021/08/28 08:03:04;;;;;;;6.07;4.07;;;;;;;17.14;84.92;96210.94;4977094;28;20211;-69
2021/08/28 08:05:31;;;;;;;7.57;4.60;;;;;;;17.16;86.22;96210.72;4976726;28;20223;-71
2021/08/28 08:07:57;;;;;;;5.80;4.47;;;;;;;17.41;84.57;96209.72;4978142;28;20208;-70
2021/08/28 08:10:24;;;;;;;8.52;4.57;;;;;;;17.60;84.49;96213.22;4977564;28;20208;-70
2021/08/28 08:12:50;;;;;;;6.75;4.82;;;;;;;17.70;84.81;96213.53;4976909;28;20211;-71
2021/08/28 08:15:17;;;;;;;5.80;3.28;;;;;;;17.60;81.96;96218.53;4975665;28;20223;-71
2021/08/28 08:17:45;;;;;;;3.60;3.08;;;;;;;17.83;81.10;96212.34;4977209;28;20891;-71
2021/08/28 08:20:13;;;;;;;4.15;2.90;;;;;;;17.87;78.79;96210.03;4977724;28;20210;-71
2021/08/28 08:22:39;;;;;;;3.47;2.92;;;;;;;17.71;80.62;96215.97;4976843;28;20858;-71
2021/08/28 08:25:07;;;;;;;3.65;2.33;;;;;;;17.77;79.72;96218.56;4976833;28;20223;-70
2021/08/28 08:27:34;;;;;;;4.50;2.17;;;;;;;17.27;79.36;96213.53;4973394;28;20211;-70
2021/08/28 08:30:00;;;;;;;3.28;2.42;;;;;;;17.36;78.65;96222.88;4977162;28;20210;-70
2021/08/28 08:32:27;;;;;;;3.55;2.63;;;;;;;17.61;77.82;96210.31;4976887;28;20222;-72
2021/08/28 08:34:55;;;;;;;5.28;2.83;;;;;;;17.61;79.92;96207.66;4976479;28;20231;-71
2021/08/28 08:37:21;;;;;;;4.40;3.00;;;;;;;17.52;79.33;96216.16;4975492;28;20207;-70
2021/08/28 08:39:48;;;;;;;5.75;2.80;;;;;;;17.71;78.49;96215.16;4975635;28;20214;-69
2021/08/28 08:42:17;;;;;;;3.17;2.80;;;;;;;17.92;80.74;96212.84;4976725;28;20207;-70
2021/08/28 08:44:47;;;;;;;3.97;2.80;;;;;;;18.10;78.16;96210.16;4976170;28;20203;-71
2021/08/28 08:47:14;;;;;;;6.40;2.83;;;;;;;18.31;76.04;96215.88;4975392;28;20200;-71
2021/08/28 08:49:42;;;;;;;3.70;2.80;;;;;;;18.58;77.93;96215.31;4976345;28;20199;-71
2021/08/28 08:52:11;;;;;;;3.47;2.65;;;;;;;18.61;75.36;96214.88;4976457;28;20781;-70
2021/08/28 08:54:38;;;;;;;5.60;2.60;;;;;;;18.85;74.10;96211.25;4975599;28;20505;-71
2021/08/28 08:57:05;;;;;;;3.33;2.70;;;;;;;19.10;74.66;96211.88;4975595;28;20585;-71
2021/08/28 08:59:32;;;;;;;4.45;2.75;;;;;;;19.21;73.89;96211.91;4976207;28;20207;-71
2021/08/28 09:01:58;;;;;;;4.15;2.33;;;;;;;18.82;72.67;96213.53;4976302;28;20765;-70
2021/08/28 09:04:25;;;;;;;2.33;2.13;;;;;;;18.83;72.73;96213.31;4976639;28;20580;-70
2021/08/28 09:06:51;;;;;;;2.65;1.98;;;;;;;18.68;74.72;96214.78;4975035;28;20597;-71
2021/08/28 09:09:19;;;;;;;2.80;1.98;;;;;;;18.82;75.32;96208.19;4976401;28;20214;-71
2021/08/28 09:11:58;;;;;;;3.30;1.83;;;;;;;18.75;74.56;96205.63;4976429;28;20208;-71
2021/08/28 09:14:25;;;;;;;2.67;1.88;;;;;;;17.90;76.72;96214.94;4976950;28;20306;-71
2021/08/28 09:16:53;;;;;;;2.15;1.80;;;;;;;18.13;75.31;96209.75;4974310;28;20223;-71
2021/08/28 09:19:19;;;;;;;2.20;1.83;;;;;;;17.96;74.40;96216.69;4975713;28;20286;-71
2021/08/28 09:21:46;;;;;;;3.72;2.25;;;;;;;17.72;77.40;96218.41;4975210;28;20210;-70
2021/08/28 09:24:14;;;;;;;2.40;2.00;;;;;;;18.07;76.56;96221.28;4976695;28;20211;-71
2021/08/28 09:26:44;;;;;;;2.70;1.80;;;;;;;18.38;75.47;96220.09;4972397;28;20227;-70
2021/08/28 09:29:13;;;;;;;2.60;2.20;;;;;;;18.21;75.37;96225.47;4976174;28;20213;-71
2021/08/28 09:31:45;;;;;;;4.22;2.30;;;;;;;18.38;75.58;96225.44;4976558;28;20214;-70
2021/08/28 09:34:20;;;;;;;4.18;2.50;;;;;;;18.55;76.33;96222.97;4976121;28;21036;-70
2021/08/28 09:36:52;;;;;;;2.10;1.50;;;;;;;18.68;72.74;96220.91;4975124;28;20226;-70
2021/08/28 09:39:19;;;;;;;2.67;1.50;;;;;;;18.48;69.77;96217.72;4976365;28;20210;-71
2021/08/28 09:41:54;;;;;;;2.42;1.60;;;;;;;18.92;71.27;96216.47;4976400;28;21091;-70
2021/08/28 09:44:22;;;;;;;2.42;1.92;;;;;;;18.82;72.14;96221.56;4975815;28;20199;-71
2021/08/28 09:46:48;;;;;;;1.98;1.60;;;;;;;18.66;70.41;96217.66;4975486;28;20234;-71
2021/08/28 09:49:24;;;;;;;1.77;1.65;;;;;;;19.30;68.76;96215.88;4975674;28;20203;-71
2021/08/28 09:51:50;;;;;;;2.40;1.20;;;;;;;19.97;67.37;96202.75;4975262;28;20253;-70
2021/08/28 09:54:17;;;;;;;2.38;1.60;;;;;;;20.28;72.12;96211.16;4975608;28;20238;-71
2021/08/28 09:56:43;;;;;;;2.30;1.30;;;;;;;19.92;67.97;96208.00;4974613;28;20230;-70
2021/08/28 09:59:22;;;;;;;4.63;1.65;;;;;;;19.79;63.70;96216.22;4975077;28;20213;-71
2021/08/28 10:01:48;;;;;;;2.13;1.45;;;;;;;19.96;64.29;96206.47;4975193;28;20729;-69
2021/08/28 10:04:15;;;;;;;1.88;1.27;;;;;;;19.43;65.97;96212.16;4975910;28;20210;-70
2021/08/28 10:06:46;;;;;;;1.67;1.35;;;;;;;19.34;69.14;96213.56;4974529;28;20269;-71
2021/08/28 10:09:14;;;;;;;2.35;1.48;;;;;;;19.61;68.59;96208.34;4974908;28;20298;-71
2021/08/28 10:11:43;;;;;;;2.17;1.98;;;;;;;19.43;71.64;96209.50;4975584;28;20218;-70
2021/08/28 10:14:10;;;;;;;1.77;1.58;;;;;;;19.56;69.95;96209.25;4975625;28;20231;-71
2021/08/28 10:16:38;;;;;;;2.20;1.77;;;;;;;19.61;70.80;96208.34;4975111;28;20230;-70
2021/08/28 10:19:05;;;;;;;2.55;1.67;;;;;;;19.54;67.76;96212.16;4975636;28;20218;-70
2021/08/28 10:21:32;;;;;;;3.22;1.73;;;;;;;19.33;69.74;96211.91;4975171;28;20212;-71
2021/08/28 10:23:59;;;;;;;2.13;1.90;;;;;;;18.78;69.94;96207.03;4974894;28;20212;-70
2021/08/28 10:26:25;;;;;;;2.92;1.77;;;;;;;19.07;70.45;96210.50;4975256;28;20250;-71
2021/08/28 10:28:58;;;;;;;3.00;1.90;;;;;;;19.16;68.74;96209.09;4972330;28;20204;-71
2021/08/28 10:31:27;;;;;;;4.05;2.00;;;;;;;19.19;68.66;96216.66;4975461;28;20239;-71
2021/08/28 10:33:55;;;;;;;3.03;1.90;;;;;;;19.41;67.60;96206.22;4975407;28;20234;-71
2021/08/28 10:36:22;;;;;;;2.42;2.03;;;;;;;19.16;64.90;96208.31;4974368;28;20223;-71
2021/08/28 10:38:50;;;;;;;1.20;1.08;;;;;;;19.00;67.93;96199.06;4975423;28;20203;-69
2021/08/28 10:41:19;;;;;;;2.38;1.10;;;;;;;19.01;65.19;96214.03;4975427;28;20230;-71
2021/08/28 10:43:46;;;;;;;1.30;1.00;;;;;;;19.51;67.77;96201.91;4976425;28;20199;-71
2021/08/28 10:46:20;;;;;;;1.20;1.00;;;;;;;19.91;64.93;96209.03;4974328;28;20216;-72
2021/08/28 10:48:52;;;;;;;1.30;1.10;;;;;;;19.42;63.85;96210.53;4975161;28;20305;-71
2021/08/28 10:51:24;;;;;;;1.10;1.00;;;;;;;19.47;64.10;96216.00;4975415;28;20203;-70
2021/08/28 10:53:55;;;;;;;1.75;1.30;;;;;;;19.34;64.83;96217.03;4974968;28;20223;-71
2021/08/28 10:56:35;;;;;;;1.73;1.60;;;;;;;19.29;65.82;96221.44;4974451;28;20242;-72
2021/08/28 10:59:19;;;;;;;1.58;1.48;;;;;;;19.18;65.32;96216.88;4975366;28;20578;-70
2021/08/28 11:01:53;;;;;;;2.65;1.73;;;;;;;18.76;68.00;96217.09;4975079;28;20620;-70
2021/08/28 11:04:38;;;;;;;4.50;1.60;;;;;;;18.99;68.87;96224.16;4974587;28;20198;-71
2021/08/28 11:07:20;;;;;;;2.03;1.40;;;;;;;18.57;69.61;96229.72;4974496;28;20207;-70
2021/08/28 11:10:13;;;;;;;3.33;1.90;;;;;;;19.06;69.15;96230.22;4977321;28;20569;-71
2021/08/28 11:12:51;;;;;;;2.00;1.80;;;;;;;18.62;70.51;96227.19;4978655;28;20225;-72
2021/08/28 11:15:53;;;;;;;2.40;1.77;;;;;;;18.55;71.50;96225.63;4977585;28;20223;-71
2021/08/28 11:18:55;;;;;;;3.83;2.30;;;;;;;18.80;69.47;96224.44;4977900;28;20213;-71
2021/08/28 11:21:22;;;;;;;2.30;2.10;;;;;;;18.59;70.38;96235.63;4917493;29;20208;-71
2021/08/28 11:23:53;;;;;;;1.70;1.55;;;;;;;19.02;68.86;96230.91;4966277;28;20557;-71
2021/08/28 11:26:34;;;;;;;1.98;1.88;;;;;;;18.84;69.66;96228.28;4976784;28;20223;-70
2021/08/28 11:29:01;;;;;;;3.42;2.33;;;;;;;18.53;70.81;96233.88;4975138;28;20499;-71
2021/08/28 11:31:45;;;;;;;3.35;2.03;;;;;;;18.95;68.85;96227.50;4978017;28;20207;-71